Cherry Point, North Carolina
Current Conditions -  °F | °C
As of 6:54 AM on Thursday 18 Dec 2014 (Local Time) from KNKT Reporting Station
Clear Clear  
Wind Chill: 37°   Ceiling: Unl
Heat Index: 43°   Visibility: 10mi
Dew Point: 33°   Wind: 10mph
Humidity: 68%   Direction: 350°N
Pressure: 30.15"   Gusts: NA
Location:  34.9°N, 76.88°W
Report Text: KNKT 181154Z 35009KT 10SM CLR 06/01 A3015 RMK SLP207 T00610006 10078 20056 53019
Loading
Personal Weather Stations






























Interactive Weather Map New forecast layout! Learn more

10-Day Weather Forecast

Advertisements
Track Severe Weather on mobile